Terminal Aerodrome Forecast
Issued by NWS

Home | Current Version | Previous Version | Text Only | Print | Product List | Glossary On
Versions: 1 2 3 4 5 6 7 8 9 10 11 12
000
FTUS45 KABQ 252323
TAFFMN
TAF
KFMN 252323Z 2600/2624 26012G20KT P6SM SCT060 BKN120
     FM260300 28013KT P6SM VCSH SCT025 BKN040
      TEMPO 2603/2607 -RA BKN025 OVC040
     FM260800 31008KT P6SM SCT019 BKN035
     FM261600 28012G20KT P6SM SCT050=

USA.gov is the U.S. government's official web portal to all federal, state and local government web resources and services.